DLH5XT EDDP-EDDF
Flight info
| Callsign | DLH5XT |
|---|---|
| Flight time | 0h 38m |
| Altitude | 20000 |
| Route | ORTAG5E ORTAG T177 ODIPI T157 KERAX KERAX5A |
| Aircraft | A319/M-SDE3FGHIRWY/LB1 |
Departure
| Time | 2026-05-05 13:58 |
|---|---|
| Airport | Leipzig/Halle Airport (EDDP) |
Arrival
| Time | 2026-05-05 14:37 |
|---|---|
| Airport | Frankfurt Main Airport (EDDF) |
| Time | Latitude | Longitude | Altitude | Speed | Heading |
|---|---|---|---|---|---|
| 2026-05-05 13:37 | 51.41883 | 12.22185 | 438 ft | 0 kts | 15° |
| 2026-05-05 13:46 | 51.41872 | 12.22180 | 438 ft | 2 kts | 15° |
| 2026-05-05 13:46 | 51.41857 | 12.22173 | 439 ft | 2 kts | 15° |
| 2026-05-05 13:46 | 51.41843 | 12.22167 | 439 ft | 2 kts | 15° |
| 2026-05-05 13:46 | 51.41828 | 12.22160 | 439 ft | 2 kts | 15° |
| 2026-05-05 13:47 | 51.41814 | 12.22154 | 440 ft | 1 kts | 15° |
| 2026-05-05 13:47 | 51.41805 | 12.22150 | 440 ft | 2 kts | 2° |
| 2026-05-05 13:47 | 51.41790 | 12.22155 | 440 ft | 2 kts | 327° |
| 2026-05-05 13:47 | 51.41780 | 12.22172 | 441 ft | 2 kts | 295° |
| 2026-05-05 13:48 | 51.41777 | 12.22182 | 441 ft | 1 kts | 280° |
| 2026-05-05 13:48 | 51.41777 | 12.22189 | 441 ft | 0 kts | 285° |
| 2026-05-05 13:50 | 51.41782 | 12.22155 | 440 ft | 6 kts | 284° |
| 2026-05-05 13:50 | 51.41801 | 12.22040 | 437 ft | 13 kts | 285° |
| 2026-05-05 13:50 | 51.41831 | 12.21866 | 432 ft | 18 kts | 285° |
| 2026-05-05 13:51 | 51.41868 | 12.21657 | 428 ft | 20 kts | 285° |
| 2026-05-05 13:51 | 51.41906 | 12.21416 | 423 ft | 23 kts | 284° |
| 2026-05-05 13:51 | 51.41952 | 12.21161 | 418 ft | 24 kts | 287° |
| 2026-05-05 13:51 | 51.41975 | 12.21031 | 417 ft | 7 kts | 285° |
| 2026-05-05 13:52 | 51.41989 | 12.20942 | 416 ft | 9 kts | 284° |
| 2026-05-05 13:52 | 51.41970 | 12.20877 | 416 ft | 8 kts | 195° |
| 2026-05-05 13:52 | 51.41911 | 12.20858 | 416 ft | 9 kts | 190° |
| 2026-05-05 13:52 | 51.41845 | 12.20832 | 416 ft | 10 kts | 196° |
| 2026-05-05 13:53 | 51.41773 | 12.20798 | 417 ft | 11 kts | 197° |
| 2026-05-05 13:53 | 51.41695 | 12.20762 | 417 ft | 11 kts | 193° |
| 2026-05-05 13:53 | 51.41613 | 12.20728 | 418 ft | 12 kts | 196° |
| 2026-05-05 13:53 | 51.41527 | 12.20689 | 418 ft | 12 kts | 195° |
| 2026-05-05 13:54 | 51.41477 | 12.20667 | 419 ft | 5 kts | 195° |
| 2026-05-05 13:54 | 51.41434 | 12.20648 | 419 ft | 7 kts | 195° |
| 2026-05-05 13:54 | 51.41421 | 12.20642 | 419 ft | 0 kts | 194° |
| 2026-05-05 13:55 | 51.41420 | 12.20642 | 419 ft | 0 kts | 194° |
| 2026-05-05 13:55 | 51.41412 | 12.20639 | 419 ft | 1 kts | 194° |
| 2026-05-05 13:55 | 51.41395 | 12.20632 | 419 ft | 3 kts | 194° |
| 2026-05-05 13:56 | 51.41359 | 12.20617 | 419 ft | 6 kts | 194° |
| 2026-05-05 13:56 | 51.41298 | 12.20590 | 419 ft | 11 kts | 195° |
| 2026-05-05 13:56 | 51.41219 | 12.20557 | 419 ft | 10 kts | 190° |
| 2026-05-05 13:56 | 51.41169 | 12.20625 | 420 ft | 10 kts | 104° |
| 2026-05-05 13:57 | 51.41172 | 12.20717 | 422 ft | 0 kts | 84° |
| 2026-05-05 13:57 | 51.41172 | 12.20721 | 422 ft | 2 kts | 84° |
| 2026-05-05 13:58 | 51.41189 | 12.21025 | 427 ft | 63 kts | 84° |
| 2026-05-05 13:58 | 51.41239 | 12.22091 | 451 ft | 127 kts | 85° |
| 2026-05-05 13:58 | 51.41312 | 12.23785 | 611 ft | 166 kts | 84° |
| 2026-05-05 13:58 | 51.41380 | 12.25596 | 1287 ft | 165 kts | 84° |
| 2026-05-05 13:59 | 51.41543 | 12.29236 | 2646 ft | 174 kts | 81° |
| 2026-05-05 13:59 | 51.41677 | 12.31227 | 3141 ft | 190 kts | 81° |
| 2026-05-05 14:00 | 51.41948 | 12.35839 | 4088 ft | 230 kts | 83° |
| 2026-05-05 14:00 | 51.42180 | 12.38437 | 4595 ft | 248 kts | 70° |
| 2026-05-05 14:00 | 51.43095 | 12.40856 | 5167 ft | 263 kts | 43° |
| 2026-05-05 14:00 | 51.44647 | 12.42365 | 5916 ft | 270 kts | 16° |
| 2026-05-05 14:01 | 51.46513 | 12.42586 | 6482 ft | 272 kts | 349° |
| 2026-05-05 14:01 | 51.48351 | 12.41836 | 6787 ft | 274 kts | 343° |
| 2026-05-05 14:01 | 51.50189 | 12.41004 | 7067 ft | 280 kts | 343° |
| 2026-05-05 14:01 | 51.52085 | 12.40165 | 7882 ft | 284 kts | 343° |
| 2026-05-05 14:02 | 51.53966 | 12.39351 | 8826 ft | 285 kts | 342° |
| 2026-05-05 14:02 | 51.55799 | 12.38176 | 9633 ft | 286 kts | 323° |
| 2026-05-05 14:02 | 51.57153 | 12.35894 | 10378 ft | 288 kts | 298° |
| 2026-05-05 14:02 | 51.57929 | 12.32868 | 10862 ft | 302 kts | 286° |
| 2026-05-05 14:03 | 51.58598 | 12.29561 | 11259 ft | 320 kts | 286° |
| 2026-05-05 14:03 | 51.59309 | 12.26082 | 11614 ft | 338 kts | 287° |
| 2026-05-05 14:03 | 51.60132 | 12.22461 | 11945 ft | 357 kts | 294° |
| 2026-05-05 14:03 | 51.61524 | 12.19087 | 12488 ft | 369 kts | 309° |
| 2026-05-05 14:04 | 51.63463 | 12.16377 | 13216 ft | 375 kts | 323° |
| 2026-05-05 14:04 | 51.65633 | 12.14133 | 13919 ft | 379 kts | 326° |
| 2026-05-05 14:04 | 51.67857 | 12.11810 | 14577 ft | 381 kts | 319° |
| 2026-05-05 14:04 | 51.69595 | 12.08597 | 15210 ft | 379 kts | 297° |
| 2026-05-05 14:05 | 51.70500 | 12.04712 | 15887 ft | 376 kts | 278° |
| 2026-05-05 14:05 | 51.70573 | 12.00572 | 16521 ft | 374 kts | 261° |
| 2026-05-05 14:05 | 51.69814 | 11.96553 | 17139 ft | 375 kts | 243° |
| 2026-05-05 14:05 | 51.68342 | 11.93093 | 17737 ft | 378 kts | 231° |
| 2026-05-05 14:06 | 51.66693 | 11.89799 | 18328 ft | 380 kts | 231° |
| 2026-05-05 14:06 | 51.65048 | 11.86516 | 18887 ft | 383 kts | 231° |
| 2026-05-05 14:06 | 51.63363 | 11.83154 | 19421 ft | 387 kts | 231° |
| 2026-05-05 14:06 | 51.61665 | 11.79767 | 19756 ft | 389 kts | 231° |
| 2026-05-05 14:07 | 51.59983 | 11.76414 | 19795 ft | 390 kts | 231° |
| 2026-05-05 14:07 | 51.58263 | 11.72988 | 19806 ft | 390 kts | 231° |
| 2026-05-05 14:07 | 51.56566 | 11.69612 | 19806 ft | 389 kts | 231° |
| 2026-05-05 14:07 | 51.54868 | 11.66235 | 19803 ft | 389 kts | 231° |
| 2026-05-05 14:08 | 51.53184 | 11.62887 | 19803 ft | 390 kts | 231° |
| 2026-05-05 14:08 | 51.51473 | 11.59490 | 19797 ft | 390 kts | 231° |
| 2026-05-05 14:08 | 51.49762 | 11.56097 | 19801 ft | 391 kts | 231° |
| 2026-05-05 14:08 | 51.48069 | 11.52745 | 19802 ft | 390 kts | 231° |
| 2026-05-05 14:09 | 51.46356 | 11.49359 | 19801 ft | 390 kts | 231° |
| 2026-05-05 14:09 | 51.44660 | 11.46009 | 19798 ft | 390 kts | 231° |
| 2026-05-05 14:09 | 51.42935 | 11.42607 | 19801 ft | 390 kts | 231° |
| 2026-05-05 14:09 | 51.41239 | 11.39266 | 19798 ft | 390 kts | 231° |
| 2026-05-05 14:10 | 51.39531 | 11.35907 | 19801 ft | 390 kts | 231° |
| 2026-05-05 14:10 | 51.37800 | 11.32506 | 19799 ft | 390 kts | 230° |
| 2026-05-05 14:10 | 51.36099 | 11.29168 | 19798 ft | 390 kts | 230° |
| 2026-05-05 14:10 | 51.34383 | 11.25804 | 19797 ft | 391 kts | 230° |
| 2026-05-05 14:11 | 51.32672 | 11.22457 | 19797 ft | 391 kts | 230° |
| 2026-05-05 14:11 | 51.30924 | 11.19041 | 19802 ft | 391 kts | 230° |
| 2026-05-05 14:11 | 51.29192 | 11.15661 | 19793 ft | 392 kts | 230° |
| 2026-05-05 14:11 | 51.27464 | 11.12292 | 19790 ft | 392 kts | 230° |
| 2026-05-05 14:12 | 51.25734 | 11.08923 | 19795 ft | 392 kts | 230° |
| 2026-05-05 14:12 | 51.23998 | 11.05550 | 19792 ft | 393 kts | 230° |
| 2026-05-05 14:12 | 51.22270 | 11.02193 | 19791 ft | 393 kts | 230° |
| 2026-05-05 14:12 | 51.20549 | 10.98855 | 19785 ft | 393 kts | 230° |
| 2026-05-05 14:13 | 51.18822 | 10.95510 | 19787 ft | 393 kts | 230° |
| 2026-05-05 14:13 | 51.17083 | 10.92148 | 19799 ft | 392 kts | 230° |
| 2026-05-05 14:13 | 51.15358 | 10.88818 | 19798 ft | 392 kts | 230° |
| 2026-05-05 14:13 | 51.13627 | 10.85479 | 19795 ft | 392 kts | 230° |
| 2026-05-05 14:14 | 51.11886 | 10.82124 | 19795 ft | 393 kts | 230° |
| 2026-05-05 14:14 | 51.10156 | 10.78795 | 19797 ft | 392 kts | 230° |
| 2026-05-05 14:14 | 51.08419 | 10.75459 | 19796 ft | 392 kts | 230° |
| 2026-05-05 14:14 | 51.06672 | 10.72103 | 19786 ft | 392 kts | 230° |
| 2026-05-05 14:15 | 51.04946 | 10.68797 | 19784 ft | 392 kts | 230° |
| 2026-05-05 14:15 | 51.03200 | 10.65454 | 19779 ft | 393 kts | 230° |
| 2026-05-05 14:15 | 51.01460 | 10.62130 | 19779 ft | 394 kts | 230° |
| 2026-05-05 14:15 | 50.99727 | 10.58770 | 19778 ft | 394 kts | 230° |
| 2026-05-05 14:16 | 50.98014 | 10.55411 | 19781 ft | 394 kts | 230° |
| 2026-05-05 14:16 | 50.96294 | 10.52037 | 19779 ft | 394 kts | 230° |
| 2026-05-05 14:16 | 50.94574 | 10.48665 | 19777 ft | 394 kts | 230° |
| 2026-05-05 14:16 | 50.92853 | 10.45299 | 19779 ft | 394 kts | 230° |
| 2026-05-05 14:17 | 50.91116 | 10.41909 | 19782 ft | 394 kts | 230° |
| 2026-05-05 14:17 | 50.89375 | 10.38516 | 19784 ft | 394 kts | 230° |
| 2026-05-05 14:17 | 50.87665 | 10.35187 | 19784 ft | 394 kts | 230° |
| 2026-05-05 14:17 | 50.85918 | 10.31791 | 19784 ft | 394 kts | 229° |
| 2026-05-05 14:18 | 50.84199 | 10.28456 | 19784 ft | 394 kts | 229° |
| 2026-05-05 14:18 | 50.82474 | 10.25110 | 19785 ft | 395 kts | 229° |
| 2026-05-05 14:18 | 50.80732 | 10.21739 | 19783 ft | 394 kts | 229° |
| 2026-05-05 14:18 | 50.78992 | 10.18373 | 19628 ft | 394 kts | 229° |
| 2026-05-05 14:19 | 50.77267 | 10.15043 | 19376 ft | 393 kts | 229° |
| 2026-05-05 14:19 | 50.75552 | 10.11737 | 19121 ft | 392 kts | 229° |
| 2026-05-05 14:19 | 50.73831 | 10.08422 | 18870 ft | 390 kts | 229° |
| 2026-05-05 14:19 | 50.72110 | 10.05109 | 18618 ft | 389 kts | 229° |
| 2026-05-05 14:20 | 50.70401 | 10.01827 | 18365 ft | 388 kts | 229° |
| 2026-05-05 14:20 | 50.68696 | 9.98557 | 18111 ft | 388 kts | 229° |
| 2026-05-05 14:20 | 50.66987 | 9.95278 | 17823 ft | 386 kts | 229° |
| 2026-05-05 14:20 | 50.65291 | 9.92033 | 17487 ft | 385 kts | 229° |
| 2026-05-05 14:21 | 50.63597 | 9.88795 | 17021 ft | 383 kts | 229° |
| 2026-05-05 14:21 | 50.61905 | 9.85566 | 16517 ft | 380 kts | 229° |
| 2026-05-05 14:21 | 50.60240 | 9.82391 | 16000 ft | 378 kts | 229° |
| 2026-05-05 14:21 | 50.58587 | 9.79243 | 15483 ft | 376 kts | 229° |
| 2026-05-05 14:22 | 50.56920 | 9.76069 | 14952 ft | 374 kts | 229° |
| 2026-05-05 14:22 | 50.55274 | 9.72943 | 14430 ft | 373 kts | 229° |
| 2026-05-05 14:22 | 50.53627 | 9.69818 | 13897 ft | 371 kts | 229° |
| 2026-05-05 14:22 | 50.52000 | 9.66733 | 13379 ft | 369 kts | 229° |
| 2026-05-05 14:23 | 50.50371 | 9.63647 | 12874 ft | 366 kts | 229° |
| 2026-05-05 14:23 | 50.48741 | 9.60627 | 12371 ft | 363 kts | 227° |
| 2026-05-05 14:23 | 50.46989 | 9.57791 | 11867 ft | 360 kts | 223° |
| 2026-05-05 14:23 | 50.45146 | 9.55228 | 11365 ft | 356 kts | 219° |
| 2026-05-05 14:24 | 50.43232 | 9.52791 | 10880 ft | 352 kts | 218° |
| 2026-05-05 14:24 | 50.41378 | 9.50442 | 10665 ft | 339 kts | 218° |
| 2026-05-05 14:24 | 50.39564 | 9.48148 | 10484 ft | 326 kts | 218° |
| 2026-05-05 14:24 | 50.37850 | 9.45983 | 10311 ft | 314 kts | 218° |
| 2026-05-05 14:25 | 50.36184 | 9.43881 | 10149 ft | 303 kts | 218° |
| 2026-05-05 14:25 | 50.34562 | 9.41832 | 9967 ft | 293 kts | 218° |
| 2026-05-05 14:25 | 50.33024 | 9.39892 | 9838 ft | 281 kts | 218° |
| 2026-05-05 14:25 | 50.31526 | 9.38003 | 9622 ft | 275 kts | 218° |
| 2026-05-05 14:26 | 50.30038 | 9.36129 | 9249 ft | 274 kts | 217° |
| 2026-05-05 14:26 | 50.28551 | 9.34263 | 8904 ft | 272 kts | 217° |
| 2026-05-05 14:26 | 50.27101 | 9.32440 | 8566 ft | 271 kts | 218° |
| 2026-05-05 14:26 | 50.25641 | 9.30602 | 8237 ft | 269 kts | 217° |
| 2026-05-05 14:27 | 50.24176 | 9.28763 | 7917 ft | 267 kts | 217° |
| 2026-05-05 14:27 | 50.22749 | 9.26971 | 7601 ft | 266 kts | 218° |
| 2026-05-05 14:27 | 50.21307 | 9.25166 | 7268 ft | 265 kts | 218° |
| 2026-05-05 14:27 | 50.19883 | 9.23347 | 6932 ft | 263 kts | 223° |
| 2026-05-05 14:28 | 50.18729 | 9.21163 | 6618 ft | 261 kts | 233° |
| 2026-05-05 14:28 | 50.17840 | 9.18756 | 6319 ft | 259 kts | 249° |
| 2026-05-05 14:28 | 50.17329 | 9.16067 | 6024 ft | 257 kts | 253° |
| 2026-05-05 14:28 | 50.16874 | 9.13408 | 5725 ft | 255 kts | 255° |
| 2026-05-05 14:29 | 50.16398 | 9.10751 | 5428 ft | 252 kts | 253° |
| 2026-05-05 14:29 | 50.15877 | 9.08155 | 5132 ft | 250 kts | 251° |
| 2026-05-05 14:29 | 50.15325 | 9.05624 | 4830 ft | 248 kts | 251° |
| 2026-05-05 14:29 | 50.14748 | 9.03118 | 4530 ft | 242 kts | 250° |
| 2026-05-05 14:30 | 50.14172 | 9.00695 | 4228 ft | 231 kts | 250° |
| 2026-05-05 14:30 | 50.13618 | 8.98411 | 3988 ft | 222 kts | 250° |
| 2026-05-05 14:30 | 50.13087 | 8.96239 | 3956 ft | 207 kts | 250° |
| 2026-05-05 14:30 | 50.12590 | 8.94215 | 3949 ft | 194 kts | 250° |
| 2026-05-05 14:31 | 50.12116 | 8.92281 | 3956 ft | 193 kts | 250° |
| 2026-05-05 14:31 | 50.11645 | 8.90353 | 4015 ft | 185 kts | 250° |
| 2026-05-05 14:31 | 50.11208 | 8.88569 | 3994 ft | 168 kts | 249° |
| 2026-05-05 14:31 | 50.10772 | 8.86780 | 4005 ft | 181 kts | 250° |
| 2026-05-05 14:32 | 50.10325 | 8.84934 | 3840 ft | 184 kts | 250° |
| 2026-05-05 14:32 | 50.09877 | 8.83088 | 3588 ft | 182 kts | 250° |
| 2026-05-05 14:32 | 50.09439 | 8.81277 | 3337 ft | 178 kts | 250° |
| 2026-05-05 14:32 | 50.09011 | 8.79507 | 3091 ft | 169 kts | 250° |
| 2026-05-05 14:33 | 50.08611 | 8.77850 | 2859 ft | 159 kts | 250° |
| 2026-05-05 14:33 | 50.08236 | 8.76301 | 2645 ft | 148 kts | 250° |
| 2026-05-05 14:33 | 50.07880 | 8.74825 | 2476 ft | 145 kts | 250° |
| 2026-05-05 14:33 | 50.07531 | 8.73372 | 2309 ft | 137 kts | 250° |
| 2026-05-05 14:34 | 50.07212 | 8.72042 | 2115 ft | 128 kts | 250° |
| 2026-05-05 14:34 | 50.06901 | 8.70746 | 1957 ft | 127 kts | 250° |
| 2026-05-05 14:34 | 50.06592 | 8.69456 | 1799 ft | 127 kts | 249° |
| 2026-05-05 14:34 | 50.06284 | 8.68166 | 1634 ft | 127 kts | 249° |
| 2026-05-05 14:35 | 50.05976 | 8.66884 | 1468 ft | 126 kts | 249° |
| 2026-05-05 14:35 | 50.05672 | 8.65615 | 1300 ft | 126 kts | 249° |
| 2026-05-05 14:35 | 50.05365 | 8.64337 | 1131 ft | 125 kts | 249° |
| 2026-05-05 14:35 | 50.05060 | 8.63062 | 966 ft | 125 kts | 249° |
| 2026-05-05 14:36 | 50.04756 | 8.61795 | 803 ft | 125 kts | 249° |
| 2026-05-05 14:36 | 50.04457 | 8.60544 | 642 ft | 125 kts | 249° |
| 2026-05-05 14:36 | 50.04155 | 8.59278 | 479 ft | 124 kts | 249° |
| 2026-05-05 14:36 | 50.03860 | 8.58044 | 366 ft | 113 kts | 249° |
| 2026-05-05 14:37 | 50.03684 | 8.57316 | 353 ft | 26 kts | 250° |
| 2026-05-05 14:37 | 50.03707 | 8.57132 | 352 ft | 10 kts | 302° |
| 2026-05-05 14:37 | 50.03742 | 8.57031 | 352 ft | 11 kts | 300° |
| 2026-05-05 14:37 | 50.03772 | 8.56947 | 352 ft | 7 kts | 299° |
| 2026-05-05 14:38 | 50.03800 | 8.56868 | 352 ft | 8 kts | 298° |
| 2026-05-05 14:38 | 50.03805 | 8.56773 | 352 ft | 10 kts | 249° |
| 2026-05-05 14:38 | 50.03775 | 8.56656 | 351 ft | 12 kts | 249° |
| 2026-05-05 14:38 | 50.03741 | 8.56520 | 349 ft | 14 kts | 249° |
| 2026-05-05 14:39 | 50.03705 | 8.56362 | 348 ft | 15 kts | 251° |
| 2026-05-05 14:39 | 50.03665 | 8.56194 | 347 ft | 17 kts | 250° |
| 2026-05-05 14:39 | 50.03621 | 8.56013 | 346 ft | 18 kts | 250° |
| 2026-05-05 14:39 | 50.03577 | 8.55823 | 345 ft | 19 kts | 250° |
| 2026-05-05 14:40 | 50.03529 | 8.55626 | 343 ft | 19 kts | 250° |
| 2026-05-05 14:40 | 50.03480 | 8.55423 | 342 ft | 20 kts | 250° |
| 2026-05-05 14:40 | 50.03431 | 8.55215 | 341 ft | 20 kts | 250° |
| 2026-05-05 14:40 | 50.03380 | 8.55002 | 340 ft | 21 kts | 249° |
| 2026-05-05 14:41 | 50.03328 | 8.54786 | 339 ft | 21 kts | 250° |
| 2026-05-05 14:41 | 50.03283 | 8.54595 | 338 ft | 12 kts | 248° |
| 2026-05-05 14:41 | 50.03312 | 8.54481 | 338 ft | 13 kts | 336° |
| 2026-05-05 14:41 | 50.03400 | 8.54431 | 339 ft | 13 kts | 339° |
| 2026-05-05 14:42 | 50.03486 | 8.54379 | 340 ft | 13 kts | 340° |
| 2026-05-05 14:42 | 50.03575 | 8.54330 | 341 ft | 13 kts | 340° |
| 2026-05-05 14:42 | 50.03639 | 8.54309 | 343 ft | 7 kts | 20° |
| 2026-05-05 14:42 | 50.03674 | 8.54379 | 343 ft | 8 kts | 70° |
| 2026-05-05 14:43 | 50.03709 | 8.54524 | 344 ft | 21 kts | 69° |
| 2026-05-05 14:43 | 50.03759 | 8.54739 | 344 ft | 20 kts | 70° |
| 2026-05-05 14:43 | 50.03809 | 8.54945 | 346 ft | 18 kts | 69° |
| 2026-05-05 14:43 | 50.03856 | 8.55140 | 348 ft | 20 kts | 70° |
| 2026-05-05 14:44 | 50.03907 | 8.55355 | 350 ft | 20 kts | 70° |
| 2026-05-05 14:44 | 50.03956 | 8.55560 | 352 ft | 20 kts | 69° |
| 2026-05-05 14:44 | 50.04004 | 8.55764 | 353 ft | 19 kts | 70° |
| 2026-05-05 14:44 | 50.04050 | 8.55960 | 354 ft | 19 kts | 70° |
| 2026-05-05 14:45 | 50.04096 | 8.56151 | 356 ft | 18 kts | 70° |
| 2026-05-05 14:45 | 50.04141 | 8.56336 | 358 ft | 18 kts | 69° |
| 2026-05-05 14:45 | 50.04185 | 8.56517 | 359 ft | 17 kts | 70° |
| 2026-05-05 14:45 | 50.04225 | 8.56688 | 362 ft | 16 kts | 70° |
| 2026-05-05 14:46 | 50.04262 | 8.56798 | 364 ft | 9 kts | 32° |
| 2026-05-05 14:46 | 50.04329 | 8.56822 | 365 ft | 10 kts | 11° |
| 2026-05-05 14:46 | 50.04411 | 8.56845 | 367 ft | 13 kts | 10° |
| 2026-05-05 14:46 | 50.04525 | 8.56880 | 369 ft | 19 kts | 13° |
| 2026-05-05 14:47 | 50.04650 | 8.56931 | 372 ft | 18 kts | 22° |
| 2026-05-05 14:47 | 50.04763 | 8.57012 | 374 ft | 17 kts | 24° |
| 2026-05-05 14:47 | 50.04848 | 8.57073 | 375 ft | 8 kts | 26° |
| 2026-05-05 14:47 | 50.04873 | 8.57075 | 376 ft | 3 kts | 309° |
| 2026-05-05 14:48 | 50.04884 | 8.57033 | 376 ft | 4 kts | 292° |
| 2026-05-05 14:48 | 50.04894 | 8.56996 | 376 ft | 3 kts | 295° |
| 2026-05-05 14:48 | 50.04898 | 8.56985 | 375 ft | 0 kts | 294° |